Time;durP1;ratioP1;P1;durP2;ratioP2;P2;SDS_P1;SDS_P2;PMS_P1;PMS_P2;Temp;Humidity;BMP_temperature;BMP_pressure;BME280_temperature;BME280_humidity;BME280_pressure;Samples;Min_cycle;Max_cycle;Signal;HPM_P1;HPM_P2
2023/02/21 02:14:34;;;;;;;1.65;0.80;;;7.00;99.90;;;;;;5070733;28;20527;-74
2023/02/21 02:17:30;;;;;;;4.75;1.10;;;7.10;99.90;;;;;;5070479;28;20413;-74
2023/02/21 02:20:47;;;;;;;3.72;1.10;;;7.00;99.90;;;;;;5052371;28;20041;-74
2023/02/21 02:23:50;;;;;;;2.97;1.27;;;7.00;99.90;;;;;;5019243;28;20075;-74
2023/02/21 02:26:34;;;;;;;4.35;1.45;;;7.00;99.90;;;;;;5052267;28;20040;-75
2023/02/21 02:29:18;;;;;;;3.92;1.00;;;6.90;99.90;;;;;;5070304;28;20026;-74
2023/02/21 02:31:54;;;;;;;4.38;0.95;;;6.80;99.90;;;;;;5070140;28;20056;-73
2023/02/21 02:34:44;;;;;;;4.93;1.63;;;6.70;99.90;;;;;;5070198;28;20150;-74
2023/02/21 02:37:38;;;;;;;4.25;1.50;;;6.60;99.90;;;;;;5052396;28;20040;-73
2023/02/21 02:40:16;;;;;;;3.58;1.13;;;6.60;99.90;;;;;;5051944;28;20036;-75
2023/02/21 02:43:09;;;;;;;2.92;1.10;;;6.60;99.90;;;;;;5052248;28;20024;-75
2023/02/21 02:46:01;;;;;;;4.45;1.45;;;6.50;99.90;;;;;;5069993;28;20115;-75
2023/02/21 02:48:35;;;;;;;3.22;1.30;;;6.60;99.90;;;;;;5051533;28;20056;-74
2023/02/21 02:51:05;;;;;;;4.45;1.33;;;6.60;99.90;;;;;;5069896;28;20094;-75
2023/02/21 02:53:31;;;;;;;4.22;1.38;;;6.60;99.90;;;;;;5070026;28;20028;-75
2023/02/21 02:55:58;;;;;;;;;;;6.60;99.90;;;;;;5070194;28;20032;-75
2023/02/21 02:58:29;;;;;;;;;;;6.50;99.90;;;;;;5069914;28;19914;-74
2023/02/21 03:01:21;;;;;;;4.05;1.50;;;6.60;99.90;;;;;;5069801;28;19915;-74
2023/02/21 03:04:14;;;;;;;5.30;1.50;;;6.60;99.90;;;;;;5028388;28;20509;-75
2023/02/21 03:07:05;;;;;;;4.32;1.45;;;6.60;99.90;;;;;;5051496;28;20039;-75
2023/02/21 03:09:37;;;;;;;7.70;1.27;;;6.60;99.90;;;;;;5051489;28;20035;-73
2023/02/21 03:12:14;;;;;;;4.70;1.77;;;6.70;99.90;;;;;;5069600;28;20306;-74
2023/02/21 03:15:18;;;;;;;2.67;1.08;;;6.80;99.90;;;;;;5069390;28;20032;-74
2023/02/21 03:17:53;;;;;;;6.25;1.80;;;6.90;99.90;;;;;;5069400;28;20031;-74
2023/02/21 03:20:20;;;;;;;6.43;1.40;;;7.10;99.90;;;;;;5051474;28;20032;-74
2023/02/21 03:22:47;;;;;;;3.67;1.38;;;7.20;99.90;;;;;;5069464;28;20024;-74
2023/02/21 03:25:15;;;;;;;2.85;0.82;;;7.30;99.90;;;;;;5069597;28;20043;-74
2023/02/21 03:27:42;;;;;;;4.10;1.33;;;7.40;99.90;;;;;;5051594;28;20510;-74
2023/02/21 03:30:09;;;;;;;7.43;1.73;;;7.60;99.90;;;;;;5051636;28;20051;-74
2023/02/21 03:32:39;;;;;;;3.33;1.40;;;7.70;99.90;;;;;;5051202;28;20119;-74
2023/02/21 03:35:06;;;;;;;3.22;1.10;;;7.70;99.90;;;;;;5068904;28;20478;-75
2023/02/21 03:37:37;;;;;;;5.55;1.45;;;7.80;99.90;;;;;;5051138;28;20094;-74
2023/02/21 03:40:07;;;;;;;4.55;1.60;;;7.80;99.90;;;;;;5069158;28;20068;-75
2023/02/21 03:42:33;;;;;;;3.55;1.50;;;7.80;99.90;;;;;;5069256;28;20098;-75
2023/02/21 03:44:58;;;;;;;;;;;7.80;99.90;;;;;;5069438;28;20036;-75
2023/02/21 03:47:24;;;;;;;6.28;1.50;;;7.80;99.90;;;;;;5069120;28;19956;-75
2023/02/21 03:49:49;;;;;;;;;;;7.80;99.90;;;;;;5051580;28;20063;-75
2023/02/21 03:52:15;;;;;;;5.85;1.38;;;7.70;99.90;;;;;;5069089;28;19908;-74
2023/02/21 03:54:41;;;;;;;;;;;7.80;99.90;;;;;;5051269;28;20497;-75
2023/02/21 03:57:06;;;;;;;4.35;1.23;;;7.90;99.90;;;;;;5069079;28;19909;-74
2023/02/21 03:59:32;;;;;;;;;;;7.90;99.90;;;;;;5069560;28;20513;-73
2023/02/21 04:01:58;;;;;;;6.18;1.30;;;7.80;99.90;;;;;;5069159;28;19975;-74
2023/02/21 04:04:23;;;;;;;;;;;7.80;99.90;;;;;;5051561;28;20056;-75
2023/02/21 04:06:49;;;;;;;4.50;1.33;;;7.80;99.90;;;;;;5069049;28;20027;-74
2023/02/21 04:09:14;;;;;;;;;;;7.80;99.90;;;;;;5069323;28;20123;-74
2023/02/21 04:11:44;;;;;;;5.45;1.40;;;7.80;99.90;;;;;;5068686;28;19909;-74
2023/02/21 04:14:10;;;;;;;5.43;1.42;;;7.80;99.90;;;;;;5050659;28;20020;-74
2023/02/21 04:16:35;;;;;;;;;;;7.80;99.90;;;;;;5069182;28;20405;-75
2023/02/21 04:19:02;;;;;;;6.35;1.17;;;7.90;99.90;;;;;;5068840;28;19916;-75
2023/02/21 04:21:27;;;;;;;4.63;1.60;;;8.00;99.90;;;;;;5050758;28;20028;-74
2023/02/21 04:23:53;;;;;;;;;;;8.00;99.90;;;;;;5069326;28;20070;-74
2023/02/21 04:26:19;;;;;;;4.32;1.25;;;8.10;99.90;;;;;;5050468;28;20030;-75
2023/02/21 04:31:28;;;;;;;4.05;1.25;;;8.20;99.90;;;;;;5069001;28;19951;-75
2023/02/21 04:33:54;;;;;;;;;;;8.20;99.90;;;;;;5069144;28;20060;-74
2023/02/21 04:36:20;;;;;;;4.13;1.00;;;8.30;99.90;;;;;;5050342;28;20065;-74
2023/02/21 04:38:45;;;;;;;;;;;8.20;99.90;;;;;;5069011;28;20041;-74
2023/02/21 04:41:11;;;;;;;7.55;2.00;;;8.10;99.90;;;;;;5050775;28;19912;-74
2023/02/21 04:43:37;;;;;;;;;;;8.00;99.90;;;;;;5068964;28;20576;-75
2023/02/21 04:46:03;;;;;;;4.50;1.55;;;7.90;99.90;;;;;;5050499;28;19912;-74
2023/02/21 04:48:28;;;;;;;6.43;1.60;;;7.90;99.90;;;;;;5070396;28;20056;-74
2023/02/21 04:50:54;;;;;;;;;;;7.90;99.90;;;;;;5054542;28;20059;-75
2023/02/21 04:53:19;;;;;;;4.80;1.13;;;7.90;99.90;;;;;;5072196;28;20003;-75
2023/02/21 04:55:45;;;;;;;8.93;1.80;;;7.90;99.90;;;;;;5072248;28;20031;-74
2023/02/21 04:58:11;;;;;;;;;;;7.80;99.90;;;;;;5054666;28;20036;-74
2023/02/21 05:00:36;;;;;;;5.85;1.45;;;7.80;99.90;;;;;;5053891;28;19912;-74
2023/02/21 05:03:02;;;;;;;;;;;7.80;99.90;;;;;;5072381;28;20055;-74
2023/02/21 05:05:27;;;;;;;3.78;1.40;;;7.70;99.90;;;;;;5071832;28;20284;-73
2023/02/21 05:07:53;;;;;;;;;;;7.70;99.90;;;;;;5072385;28;20037;-74
2023/02/21 05:10:19;;;;;;;5.20;1.67;;;7.70;99.90;;;;;;5053779;28;19904;-74
2023/02/21 05:12:44;;;;;;;;;;;7.60;99.90;;;;;;5053810;28;20021;-74
2023/02/21 05:15:12;;;;;;;3.72;1.52;;;7.60;99.90;;;;;;5053712;28;19904;-73
2023/02/21 05:17:37;;;;;;;4.60;1.55;;;7.60;99.90;;;;;;5071579;28;20025;-74
2023/02/21 05:20:10;;;;;;;;;;;7.60;99.90;;;;;;5071961;28;20040;-74
2023/02/21 05:22:39;;;;;;;5.45;1.92;;;7.60;99.90;;;;;;5071437;28;19939;-73
2023/02/21 05:25:12;;;;;;;5.93;1.50;;;7.60;99.90;;;;;;5071277;28;20028;-74
2023/02/21 05:27:38;;;;;;;5.20;1.85;;;7.60;99.90;;;;;;5071417;28;20036;-73
2023/02/21 05:30:04;;;;;;;;;;;7.60;99.90;;;;;;5071783;28;20078;-74
2023/02/21 05:32:29;;;;;;;5.85;2.22;;;7.70;99.90;;;;;;5071042;28;19911;-73
2023/02/21 05:34:55;;;;;;;;;;;7.70;99.90;;;;;;5071627;28;20052;-74
2023/02/21 05:37:21;;;;;;;4.70;1.77;;;7.80;99.90;;;;;;5071235;28;19965;-74
2023/02/21 05:39:47;;;;;;;;;;;7.70;99.90;;;;;;5053498;28;20036;-74
2023/02/21 05:42:13;;;;;;;3.97;1.67;;;7.70;99.90;;;;;;5053257;28;20469;-74
2023/02/21 05:44:38;;;;;;;;;;;7.70;99.90;;;;;;5071644;28;20021;-74
2023/02/21 05:47:06;;;;;;;6.95;2.58;;;7.60;99.90;;;;;;5053507;28;19944;-73
2023/02/21 05:49:32;;;;;;;10.02;2.47;;;7.50;99.90;;;;;;5052975;28;20028;-72
2023/02/21 05:51:57;;;;;;;8.00;2.55;;;7.50;99.90;;;;;;5053041;28;20028;-74
2023/02/21 05:54:23;;;;;;;;;;;7.50;99.90;;;;;;5053395;28;20023;-74
2023/02/21 05:56:50;;;;;;;4.97;1.92;;;7.40;99.90;;;;;;5070967;28;19909;-73
2023/02/21 05:59:18;;;;;;;5.25;1.90;;;7.40;99.90;;;;;;5070650;28;20036;-74
2023/02/21 06:01:44;;;;;;;6.35;2.33;;;7.30;99.90;;;;;;5053065;28;20040;-74
2023/02/21 06:04:10;;;;;;;5.57;1.85;;;7.30;99.90;;;;;;5052819;28;20445;-75
2023/02/21 06:06:36;;;;;;;;;;;7.30;99.90;;;;;;5070997;28;20037;-75
2023/02/21 06:09:03;;;;;;;5.72;1.95;;;7.30;99.90;;;;;;5070705;28;19915;-74
2023/02/21 06:11:32;;;;;;;7.95;2.63;;;7.30;99.90;;;;;;5070655;28;20501;-74
2023/02/21 06:13:59;;;;;;;4.63;1.95;;;7.30;99.90;;;;;;5070662;28;20025;-75
2023/02/21 06:16:27;;;;;;;5.32;2.20;;;7.30;99.90;;;;;;5070153;28;20099;-74
2023/02/21 06:18:56;;;;;;;5.05;1.60;;;7.40;99.90;;;;;;5070572;28;20037;-75
2023/02/21 06:21:22;;;;;;;5.30;2.13;;;7.40;99.90;;;;;;5070365;28;20070;-74
2023/02/21 06:23:47;;;;;;;;;;;7.40;99.90;;;;;;5052901;28;20025;-74
2023/02/21 06:28:59;;;;;;;5.35;1.80;;;7.60;99.90;;;;;;5070596;28;20036;-73
2023/02/21 06:31:25;;;;;;;;;;;7.70;99.90;;;;;;5070274;28;20024;-74
2023/02/21 06:33:51;;;;;;;6.32;2.33;;;7.80;99.90;;;;;;5070415;28;20525;-73
2023/02/21 06:36:22;;;;;;;;;;;7.80;99.90;;;;;;5070528;28;20052;-73
2023/02/21 06:38:50;;;;;;;6.35;2.10;;;7.90;99.90;;;;;;5070002;28;19960;-73
2023/02/21 06:41:18;;;;;;;10.95;2.40;;;8.00;99.90;;;;;;5070079;28;20469;-72
2023/02/21 06:43:44;;;;;;;5.70;2.35;;;7.90;99.90;;;;;;5069974;28;20057;-74
2023/02/21 06:46:14;;;;;;;;;;;8.10;99.90;;;;;;5070295;28;20473;-74
2023/02/21 06:48:40;;;;;;;7.53;2.30;;;8.60;99.90;;;;;;5070022;28;20502;-74
2023/02/21 06:51:06;;;;;;;;;;;9.00;99.90;;;;;;5052355;28;20123;-74
2023/02/21 06:53:31;;;;;;;3.50;1.58;;;9.40;99.90;;;;;;5051856;28;19949;-74
2023/02/21 06:55:57;;;;;;;;;;;10.10;99.90;;;;;;5070163;28;20032;-74
2023/02/21 06:58:22;;;;;;;6.40;2.33;;;10.80;99.90;;;;;;5069567;28;20304;-73
2023/02/21 07:00:48;;;;;;;;;;;11.50;99.90;;;;;;5052080;28;20468;-74
2023/02/21 07:03:14;;;;;;;7.80;2.53;;;12.20;99.90;;;;;;5069623;28;19946;-74
2023/02/21 07:05:39;;;;;;;;;;;12.80;98.10;;;;;;5052164;28;20544;-73
2023/02/21 07:08:05;;;;;;;7.28;2.03;;;13.40;92.00;;;;;;5069443;28;20416;-74
2023/02/21 07:10:31;;;;;;;;;;;13.90;91.30;;;;;;5069341;28;20028;-74
2023/02/21 07:12:56;;;;;;;4.57;1.85;;;14.40;85.70;;;;;;5069256;28;19915;-73
2023/02/21 07:15:22;;;;;;;5.57;1.95;;;15.00;81.90;;;;;;5069398;28;20107;-74
2023/02/21 07:17:47;;;;;;;;;;;15.40;78.10;;;;;;5070069;28;20024;-73
2023/02/21 07:20:13;;;;;;;6.38;1.67;;;15.80;71.90;;;;;;5051507;28;19913;-73
2023/02/21 07:22:39;;;;;;;4.80;2.15;;;16.10;71.10;;;;;;5069161;28;20035;-74
2023/02/21 07:25:05;;;;;;;11.65;2.25;;;16.30;68.80;;;;;;5069029;28;20107;-73
2023/02/21 07:27:30;;;;;;;;;;;16.60;66.70;;;;;;5051899;28;20029;-74
2023/02/21 07:29:56;;;;;;;3.47;1.23;;;16.50;65.40;;;;;;5051084;28;19911;-74
2023/02/21 07:32:22;;;;;;;4.55;1.98;;;16.40;65.40;;;;;;5069331;28;20503;-73
2023/02/21 07:34:47;;;;;;;11.27;2.13;;;16.50;65.80;;;;;;5068996;28;20059;-73
2023/02/21 07:37:13;;;;;;;5.32;1.58;;;16.40;65.60;;;;;;5051263;28;20016;-74
2023/02/21 07:39:39;;;;;;;14.25;1.80;;;16.60;65.00;;;;;;5069261;28;20055;-73
2023/02/21 07:42:08;;;;;;;4.95;1.50;;;16.90;63.50;;;;;;5051288;28;20036;-74
2023/02/21 07:44:34;;;;;;;5.30;1.77;;;17.00;63.90;;;;;;5069078;28;20056;-73
2023/02/21 07:47:00;;;;;;;3.60;1.30;;;16.60;64.60;;;;;;5051206;28;20052;-74
2023/02/21 07:49:26;;;;;;;5.85;1.95;;;16.20;67.60;;;;;;5050857;28;20485;-74
2023/02/21 07:51:51;;;;;;;4.53;1.50;;;16.10;67.80;;;;;;5068781;28;20115;-73
2023/02/21 07:54:17;;;;;;;10.07;2.15;;;16.20;70.10;;;;;;5050985;28;20544;-73
2023/02/21 07:56:45;;;;;;;9.52;1.15;;;16.30;68.60;;;;;;5068898;28;20036;-73
2023/02/21 07:59:10;;;;;;;6.72;1.50;;;16.40;67.50;;;;;;5050957;28;20075;-72
2023/02/21 08:01:36;;;;;;;6.30;1.15;;;16.40;68.00;;;;;;5051017;28;20056;-74
2023/02/21 08:04:01;;;;;;;4.32;1.10;;;16.30;68.10;;;;;;5068913;28;20067;-72
2023/02/21 08:06:27;;;;;;;6.28;1.30;;;15.90;69.30;;;;;;5050773;28;20028;-74
2023/02/21 08:08:53;;;;;;;2.67;1.02;;;16.00;70.10;;;;;;5051164;28;20029;-72
2023/02/21 08:11:18;;;;;;;4.60;1.40;;;16.00;69.60;;;;;;5069183;28;20060;-72
2023/02/21 08:13:44;;;;;;;8.30;1.30;;;15.80;71.40;;;;;;5051185;28;20050;-73
2023/02/21 08:16:10;;;;;;;4.32;1.80;;;15.60;73.00;;;;;;5069478;28;20054;-73
2023/02/21 08:18:36;;;;;;;6.63;1.95;;;15.60;72.70;;;;;;5068903;28;20040;-73
2023/02/21 08:21:01;;;;;;;5.53;1.63;;;15.60;71.20;;;;;;5069211;28;20064;-72
2023/02/21 08:23:27;;;;;;;3.58;1.15;;;15.60;72.40;;;;;;5052891;28;20024;-73
2023/02/21 08:25:53;;;;;;;3.80;1.38;;;15.60;73.00;;;;;;5054868;28;20036;-74
2023/02/21 08:28:18;;;;;;;2.60;0.88;;;15.90;71.90;;;;;;5072822;28;20040;-73
2023/02/21 08:30:44;;;;;;;3.17;1.40;;;16.00;72.50;;;;;;5072632;28;20477;-73
2023/02/21 08:33:10;;;;;;;6.03;1.45;;;16.20;71.30;;;;;;5054845;28;20169;-74
2023/02/21 08:35:36;;;;;;;4.35;1.30;;;16.60;70.00;;;;;;5072139;28;20517;-75
2023/02/21 08:38:02;;;;;;;5.53;1.20;;;16.80;67.80;;;;;;5072273;28;20035;-74
2023/02/21 08:40:33;;;;;;;7.13;1.73;;;17.20;66.20;;;;;;5072042;28;20033;-72
2023/02/21 08:43:00;;;;;;;3.70;1.17;;;17.30;64.60;;;;;;5072692;28;20028;-73
2023/02/21 08:45:28;;;;;;;3.95;1.38;;;17.40;64.30;;;;;;5054357;28;20334;-73
2023/02/21 08:47:54;;;;;;;5.97;1.17;;;17.60;63.80;;;;;;5072478;28;20484;-73
2023/02/21 08:50:21;;;;;;;3.03;0.93;;;17.70;62.80;;;;;;5071931;28;20020;-75
2023/02/21 08:52:48;;;;;;;3.90;1.00;;;17.60;62.30;;;;;;5054455;28;20032;-74
2023/02/21 08:55:15;;;;;;;4.63;1.80;;;17.00;63.30;;;;;;5072158;28;20025;-73
2023/02/21 08:57:40;;;;;;;3.38;1.27;;;16.50;65.50;;;;;;5054195;28;20040;-73
2023/02/21 09:00:10;;;;;;;3.05;1.10;;;16.20;66.70;;;;;;5053950;28;20412;-72
2023/02/21 09:02:40;;;;;;;2.67;1.48;;;16.20;68.40;;;;;;5071542;28;20378;-73
2023/02/21 09:05:13;;;;;;;3.42;0.90;;;16.30;68.30;;;;;;5071735;28;20020;-74
2023/02/21 09:07:38;;;;;;;3.83;1.17;;;16.00;69.00;;;;;;5071796;28;20033;-73
2023/02/21 09:10:06;;;;;;;3.83;1.27;;;16.20;70.10;;;;;;5071639;28;20028;-72
2023/02/21 09:12:31;;;;;;;5.32;1.15;;;16.60;69.10;;;;;;5071473;28;20029;-73
2023/02/21 09:14:57;;;;;;;3.78;1.27;;;16.80;67.40;;;;;;5071680;28;20029;-73
2023/02/21 09:17:23;;;;;;;2.70;0.98;;;17.00;66.70;;;;;;5072095;28;20407;-73
2023/02/21 09:19:49;;;;;;;3.95;1.13;;;17.10;67.30;;;;;;5071380;28;20114;-73
2023/02/21 09:22:15;;;;;;;3.22;1.00;;;17.50;66.30;;;;;;5071499;28;20209;-74
2023/02/21 09:24:41;;;;;;;4.60;1.70;;;17.80;65.20;;;;;;5053389;28;20025;-77
2023/02/21 09:27:06;;;;;;;6.05;1.20;;;18.10;63.50;;;;;;5052898;28;20028;-76
2023/02/21 09:29:34;;;;;;;5.25;1.55;;;17.90;63.60;;;;;;5071270;28;20096;-74
2023/02/21 09:32:00;;;;;;;6.50;1.70;;;17.70;63.50;;;;;;5053267;28;20087;-74
2023/02/21 09:34:27;;;;;;;3.47;1.25;;;17.40;64.30;;;;;;5052250;28;20216;-73
2023/02/21 09:36:56;;;;;;;4.47;1.38;;;16.90;65.40;;;;;;5071158;28;20424;-74
2023/02/21 09:39:22;;;;;;;6.28;1.55;;;16.40;67.30;;;;;;5071330;28;20404;-74
2023/02/21 09:41:50;;;;;;;8.50;1.55;;;15.80;70.10;;;;;;5053518;28;20035;-74
2023/02/21 09:44:19;;;;;;;5.80;1.50;;;15.30;74.00;;;;;;5071105;28;20150;-74
2023/02/21 09:46:51;;;;;;;5.93;1.60;;;14.90;78.70;;;;;;5070798;28;20025;-73
2023/02/21 09:49:23;;;;;;;3.88;1.10;;;14.60;84.10;;;;;;5071027;28;20040;-73
2023/02/21 09:51:51;;;;;;;7.95;1.50;;;14.20;89.90;;;;;;5071029;28;20038;-72
2023/02/21 09:54:42;;;;;;;6.78;1.60;;;13.90;92.40;;;;;;5053027;28;20021;-72
2023/02/21 09:57:14;;;;;;;3.40;1.55;;;13.60;95.10;;;;;;5070891;28;20028;-74
2023/02/21 09:59:40;;;;;;;6.03;1.58;;;13.40;96.90;;;;;;5052931;28;20040;-74
2023/02/21 10:02:09;;;;;;;3.13;1.13;;;13.20;98.40;;;;;;5070568;28;20565;-73
2023/02/21 10:04:56;;;;;;;11.80;1.73;;;13.00;99.90;;;;;;5070483;28;20040;-74
2023/02/21 10:07:44;;;;;;;5.68;1.65;;;12.90;99.90;;;;;;5052633;28;20119;-74
2023/02/21 10:10:22;;;;;;;8.60;1.58;;;13.00;99.90;;;;;;5052656;28;20445;-74
2023/02/21 10:12:53;;;;;;;3.92;1.50;;;12.90;99.90;;;;;;5052758;28;20036;-74
2023/02/21 10:15:42;;;;;;;5.90;1.83;;;12.90;99.90;;;;;;5052873;28;20059;-74
2023/02/21 10:18:24;;;;;;;6.65;1.48;;;12.90;99.90;;;;;;5070541;28;20032;-74
2023/02/21 10:21:00;;;;;;;5.47;1.88;;;12.90;99.90;;;;;;5070546;28;20044;-73
2023/02/21 10:23:47;;;;;;;10.47;2.60;;;12.90;99.90;;;;;;5051568;28;20028;-73
2023/02/21 10:26:25;;;;;;;3.97;1.83;;;12.90;99.90;;;;;;5069545;28;20267;-74
2023/02/21 10:28:52;;;;;;;4.93;1.73;;;12.90;99.90;;;;;;5069874;28;20024;-74
2023/02/21 10:31:33;;;;;;;3.85;1.40;;;13.00;99.90;;;;;;5051328;28;20112;-74
2023/02/21 10:33:58;;;;;;;7.93;1.38;;;13.10;99.90;;;;;;5051472;28;20024;-75
2023/02/21 10:36:25;;;;;;;;;;;13.10;99.90;;;;;;5069387;28;20054;-74
2023/02/21 10:39:14;;;;;;;2.95;1.20;;;13.30;99.90;;;;;;5051577;28;20474;-74
2023/02/21 10:41:41;;;;;;;2.72;1.20;;;13.60;99.90;;;;;;5051534;28;20044;-74
2023/02/21 10:44:12;;;;;;;6.43;1.52;;;13.70;99.90;;;;;;5051296;28;20097;-74
2023/02/21 10:46:51;;;;;;;5.45;1.70;;;14.00;99.90;;;;;;5068677;28;20029;-74
2023/02/21 10:49:27;;;;;;;8.30;1.58;;;14.20;98.80;;;;;;5068892;28;20116;-75
2023/02/21 10:52:16;;;;;;;5.03;1.50;;;14.40;98.10;;;;;;5068856;28;20020;-74
2023/02/21 10:54:58;;;;;;;4.07;1.67;;;14.40;97.40;;;;;;5051140;28;20044;-74
2023/02/21 10:57:24;;;;;;;5.03;1.75;;;14.50;98.70;;;;;;5051850;28;20028;-74
2023/02/21 10:59:50;;;;;;;4.07;1.50;;;14.50;98.50;;;;;;5069248;28;20075;-75
2023/02/21 11:02:25;;;;;;;;;;;14.50;99.10;;;;;;5069976;28;20056;-75
2023/02/21 11:04:53;;;;;;;6.85;1.40;;;14.50;98.40;;;;;;5069625;28;19908;-74
2023/02/21 11:07:18;;;;;;;5.32;1.27;;;14.60;97.50;;;;;;5051747;28;20056;-74
2023/02/21 11:09:45;;;;;;;;;;;14.50;97.30;;;;;;5052097;28;20056;-74
2023/02/21 11:12:24;;;;;;;4.30;1.43;;;14.50;96.40;;;;;;5051739;28;19908;-75
2023/02/21 11:14:49;;;;;;;6.80;1.65;;;14.40;98.00;;;;;;5069408;28;20024;-74
2023/02/21 11:17:28;;;;;;;;;;;14.40;97.80;;;;;;5069863;28;20036;-72
2023/02/21 11:19:56;;;;;;;4.60;1.52;;;14.40;99.90;;;;;;5069125;28;20015;-75
2023/02/21 11:22:24;;;;;;;5.53;1.35;;;14.40;99.40;;;;;;5051441;28;20032;-74
2023/02/21 11:25:10;;;;;;;6.32;1.17;;;14.40;98.80;;;;;;5069510;28;20024;-73
2023/02/21 11:27:37;;;;;;;6.97;2.17;;;14.50;96.90;;;;;;5069440;28;20033;-74
2023/02/21 11:30:14;;;;;;;6.65;1.10;;;14.40;97.90;;;;;;5051231;28;20035;-74
2023/02/21 11:32:42;;;;;;;5.00;1.30;;;14.50;97.60;;;;;;5069255;28;20057;-74
2023/02/21 11:35:21;;;;;;;5.20;1.33;;;14.50;96.70;;;;;;5069115;28;20044;-74
2023/02/21 11:37:53;;;;;;;3.97;1.02;;;14.50;98.00;;;;;;5051307;28;20485;-74
2023/02/21 11:40:27;;;;;;;2.85;1.30;;;14.50;97.20;;;;;;5051131;28;20036;-73
2023/02/21 11:43:24;;;;;;;6.20;1.10;;;14.50;97.10;;;;;;5069277;28;20035;-74
2023/02/21 11:46:04;;;;;;;3.42;1.42;;;14.50;98.80;;;;;;5069239;28;20036;-75
2023/02/21 11:49:00;;;;;;;3.78;1.30;;;14.50;97.50;;;;;;5050915;28;20024;-74
2023/02/21 11:51:31;;;;;;;5.65;1.45;;;14.50;98.00;;;;;;5047753;28;20554;-75
2023/02/21 11:53:57;;;;;;;3.10;1.20;;;14.50;97.70;;;;;;5069170;28;20118;-74
2023/02/21 11:56:25;;;;;;;;;;;14.60;96.90;;;;;;5069649;28;20056;-75
2023/02/21 11:59:16;;;;;;;4.97;1.33;;;14.60;96.60;;;;;;5073505;28;19923;-75
2023/02/21 12:01:59;;;;;;;4.88;1.13;;;14.60;95.70;;;;;;5073304;28;20020;-74
2023/02/21 12:05:07;;;;;;;5.05;1.55;;;14.50;97.40;;;;;;5072834;28;20552;-75
2023/02/21 12:07:44;;;;;;;4.20;1.50;;;14.60;95.70;;;;;;5072656;28;20082;-75
2023/02/21 12:10:53;;;;;;;3.65;1.10;;;14.50;95.70;;;;;;5054986;28;20040;-74
2023/02/21 12:13:55;;;;;;;5.20;1.20;;;14.50;95.80;;;;;;5073003;28;20024;-75
2023/02/21 12:16:39;;;;;;;2.83;1.25;;;14.50;96.90;;;;;;5072687;28;20036;-75
2023/02/21 12:19:30;;;;;;;3.13;1.23;;;14.70;94.70;;;;;;5054962;28;20048;-75
2023/02/21 12:22:10;;;;;;;3.42;1.00;;;14.70;93.70;;;;;;5055140;28;20032;-75
2023/02/21 12:25:10;;;;;;;3.95;1.10;;;14.70;95.20;;;;;;5054644;28;20379;-75
2023/02/21 12:27:46;;;;;;;3.80;1.25;;;14.70;94.20;;;;;;5072853;28;20079;-75
2023/02/21 12:30:25;;;;;;;4.47;1.08;;;14.70;95.30;;;;;;5072587;28;20032;-75
2023/02/21 12:32:54;;;;;;;6.95;1.08;;;14.70;94.20;;;;;;5054707;28;20499;-75
2023/02/21 12:36:11;;;;;;;4.25;1.00;;;14.70;93.90;;;;;;5054268;28;20052;-75
2023/02/21 12:38:45;;;;;;;5.32;1.33;;;14.60;94.50;;;;;;5072374;28;20036;-75
2023/02/21 12:41:23;;;;;;;6.20;1.02;;;14.60;94.20;;;;;;5072423;28;20501;-74
2023/02/21 12:44:21;;;;;;;2.45;1.17;;;14.60;95.40;;;;;;5072649;28;20052;-75
2023/02/21 12:47:10;;;;;;;5.05;1.20;;;14.60;95.10;;;;;;5054460;28;20024;-75
2023/02/21 12:50:13;;;;;;;5.93;1.20;;;14.50;96.10;;;;;;5072369;28;20037;-75
2023/02/21 12:52:50;;;;;;;5.45;1.38;;;14.60;96.80;;;;;;5053990;28;20025;-76
2023/02/21 12:55:28;;;;;;;3.35;1.13;;;14.60;96.50;;;;;;5071791;28;20060;-74
2023/02/21 12:58:09;;;;;;;8.85;2.70;;;14.70;97.20;;;;;;5072077;28;20032;-75
2023/02/21 13:00:42;;;;;;;4.90;2.00;;;14.90;95.40;;;;;;5053505;28;20056;-74
2023/02/21 13:03:30;;;;;;;3.90;1.50;;;15.10;95.30;;;;;;5072092;28;20027;-75
2023/02/21 13:06:01;;;;;;;5.65;1.42;;;15.20;94.70;;;;;;5072035;28;20028;-75
2023/02/21 13:08:48;;;;;;;4.82;1.42;;;15.40;92.80;;;;;;5052489;28;20029;-75
2023/02/21 13:11:24;;;;;;;7.72;1.15;;;15.60;91.70;;;;;;5071755;28;20466;-74
2023/02/21 13:13:50;;;;;;;3.78;1.77;;;15.60;90.70;;;;;;5053796;28;20020;-76
2023/02/21 13:16:17;;;;;;;5.93;1.90;;;15.60;91.60;;;;;;5071539;28;20052;-74
2023/02/21 13:18:58;;;;;;;8.15;2.28;;;15.60;91.20;;;;;;5053263;28;20164;-75
2023/02/21 13:21:29;;;;;;;6.32;2.88;;;15.60;90.20;;;;;;5071699;28;20038;-76
2023/02/21 13:24:20;;;;;;;6.07;1.80;;;15.70;90.90;;;;;;5071669;28;20017;-75
2023/02/21 13:27:34;;;;;;;3.35;1.17;;;15.60;90.70;;;;;;5053602;28;20060;-75
2023/02/21 13:30:11;;;;;;;4.03;1.40;;;15.70;91.40;;;;;;4989231;28;20038;-75
2023/02/21 13:32:38;;;;;;;2.55;1.20;;;15.80;91.10;;;;;;4989561;28;20073;-76
2023/02/21 13:35:08;;;;;;;2.90;1.10;;;15.80;91.10;;;;;;5042440;28;20574;-76
2023/02/21 13:37:42;;;;;;;4.13;1.20;;;15.80;91.40;;;;;;5053344;28;20443;-76
2023/02/21 13:40:42;;;;;;;6.88;1.20;;;16.00;88.10;;;;;;5052984;28;20051;-74
2023/02/21 13:43:31;;;;;;;3.88;1.08;;;15.90;88.40;;;;;;5056459;28;20097;-75
2023/02/21 13:46:22;;;;;;;4.50;1.08;;;15.90;88.10;;;;;;5071092;28;20028;-75
2023/02/21 13:49:26;;;;;;;5.43;1.25;;;15.70;89.20;;;;;;5071153;28;20050;-76
2023/02/21 13:51:54;;;;;;;2.88;1.02;;;15.50;90.50;;;;;;5052743;28;20028;-76
2023/02/21 13:54:23;;;;;;;3.70;1.20;;;15.30;91.40;;;;;;5052624;28;20030;-75
2023/02/21 13:56:50;;;;;;;2.50;1.10;;;15.10;92.80;;;;;;5052736;28;20025;-75
2023/02/21 13:59:21;;;;;;;3.28;1.40;;;14.90;94.40;;;;;;5052831;28;20090;-75
2023/02/21 14:01:49;;;;;;;5.03;1.30;;;14.80;94.90;;;;;;5070914;28;20032;-74
2023/02/21 14:04:52;;;;;;;4.68;1.33;;;14.60;96.00;;;;;;5070886;28;20037;-75
2023/02/21 14:07:44;;;;;;;5.57;1.23;;;14.50;96.70;;;;;;5070802;28;20048;-75
2023/02/21 14:10:24;;;;;;;4.53;1.42;;;14.40;98.60;;;;;;5070599;28;20028;-75
2023/02/21 14:13:03;;;;;;;6.00;1.15;;;14.30;99.50;;;;;;5070560;28;20028;-74
2023/02/21 14:15:44;;;;;;;2.95;0.80;;;14.30;99.80;;;;;;5070587;28;20113;-75
2023/02/21 14:18:32;;;;;;;4.07;1.05;;;14.30;99.90;;;;;;5049562;28;20024;-74
2023/02/21 14:20:59;;;;;;;4.35;1.10;;;14.20;99.90;;;;;;5069252;28;20048;-74
2023/02/21 14:23:38;;;;;;;5.03;1.60;;;14.20;99.90;;;;;;5070531;28;20024;-74
2023/02/21 14:26:05;;;;;;;2.00;1.00;;;14.10;99.90;;;;;;5069007;28;20028;-75
2023/02/21 14:28:55;;;;;;;2.65;1.38;;;14.00;99.90;;;;;;5067659;28;20028;-75
2023/02/21 14:31:57;;;;;;;3.45;1.02;;;13.90;99.90;;;;;;5069462;28;20028;-73
2023/02/21 14:34:44;;;;;;;5.03;1.17;;;13.90;99.80;;;;;;5017519;28;20037;-73
2023/02/21 14:37:31;;;;;;;4.25;0.95;;;13.80;99.90;;;;;;5070060;28;20115;-75
2023/02/21 14:40:09;;;;;;;2.53;1.00;;;13.80;99.90;;;;;;5068303;28;20362;-74
2023/02/21 14:42:43;;;;;;;3.55;1.27;;;13.90;99.60;;;;;;5069282;28;20024;-75
2023/02/21 14:45:08;;;;;;;13.48;7.63;;;13.80;99.90;;;;;;5069708;28;20060;-75
2023/02/21 14:47:52;;;;;;;;;;;13.70;99.90;;;;;;5068566;28;20067;-75
2023/02/21 14:51:05;;;;;;;5.13;2.00;;;13.60;99.90;;;;;;5069910;28;19948;-75
2023/02/21 14:53:40;;;;;;;4.13;1.27;;;13.50;99.90;;;;;;5039384;28;20047;-75
2023/02/21 14:56:22;;;;;;;6.47;0.90;;;13.50;99.90;;;;;;5069923;28;20497;-75
2023/02/21 14:58:54;;;;;;;8.60;1.48;;;13.40;99.90;;;;;;5068599;28;20055;-75
2023/02/21 15:01:25;;;;;;;3.83;1.27;;;13.30;99.90;;;;;;5069534;28;20028;-74
2023/02/21 15:04:19;;;;;;;2.92;1.00;;;13.20;99.90;;;;;;5069778;28;20027;-75
2023/02/21 15:06:58;;;;;;;2.53;0.90;;;13.20;99.90;;;;;;5068197;28;20082;-75
2023/02/21 15:09:24;;;;;;;9.20;1.45;;;13.10;99.90;;;;;;5069487;28;20037;-74
2023/02/21 15:11:50;;;;;;;;;;;13.00;99.90;;;;;;5069117;28;20103;-75
2023/02/21 15:14:23;;;;;;;3.17;1.25;;;12.90;99.90;;;;;;5069600;28;20422;-75
2023/02/21 15:16:55;;;;;;;4.53;1.38;;;12.90;99.90;;;;;;5069512;28;20112;-75
2023/02/21 15:19:27;;;;;;;3.42;1.17;;;12.80;99.90;;;;;;5069212;28;20035;-76
2023/02/21 15:22:21;;;;;;;4.85;1.55;;;12.80;99.90;;;;;;5067997;28;20054;-75
2023/02/21 15:25:08;;;;;;;5.35;1.15;;;12.80;99.90;;;;;;5067643;28;20445;-75
2023/02/21 15:27:52;;;;;;;3.40;1.50;;;12.70;99.90;;;;;;5067506;28;20036;-76
2023/02/21 15:30:39;;;;;;;4.55;1.42;;;12.80;99.90;;;;;;5067972;28;20021;-75
2023/02/21 15:33:19;;;;;;;;;;;12.70;99.90;;;;;;5066327;28;20056;-76
2023/02/21 15:35:56;;;;;;;6.20;1.65;;;12.60;99.90;;;;;;5066598;28;19920;-75
2023/02/21 15:38:54;;;;;;;3.20;1.55;;;12.50;99.90;;;;;;5067072;28;20539;-75
2023/02/21 15:41:44;;;;;;;4.57;1.25;;;12.50;99.90;;;;;;5061738;28;20916;-75
2023/02/21 15:44:22;;;;;;;3.30;1.20;;;12.50;99.90;;;;;;5066959;28;20090;-75
2023/02/21 15:46:56;;;;;;;3.85;1.25;;;12.50;99.90;;;;;;5066200;28;20020;-76
2023/02/21 15:49:26;;;;;;;5.60;1.60;;;12.40;99.90;;;;;;5067551;28;20035;-74
2023/02/21 15:51:52;;;;;;;4.38;1.40;;;12.40;99.90;;;;;;5068065;28;20039;-74